createdAt,value
2023-11-16T00:04:22.674Z,98350.78
2023-11-16T00:09:25.234Z,98313.34
2023-11-16T00:14:28.685Z,98379.22
2023-11-16T00:19:36.676Z,98330.69
2023-11-16T00:24:39.281Z,98374.06
2023-11-16T00:29:41.673Z,98344.53
2023-11-16T00:34:44.183Z,98337.56
2023-11-16T00:39:47.119Z,98366.91
2023-11-16T00:44:49.979Z,98368.66
2023-11-16T00:49:52.517Z,98341.75
2023-11-16T00:54:54.887Z,98325.25
2023-11-16T00:59:57.336Z,98355.56
2023-11-16T01:04:59.765Z,98383.13
2023-11-16T01:10:05.155Z,98356.31
2023-11-16T01:15:12.407Z,98370.13
2023-11-16T01:20:20.852Z,98374.44
2023-11-16T01:25:27.136Z,98322.44
2023-11-16T01:30:30.230Z,98331.94
2023-11-16T01:35:33.401Z,98398.53
2023-11-16T01:40:42.187Z,98277.00
2023-11-16T01:45:45.465Z,98386.41
2023-11-16T01:50:48.447Z,98303.88
2023-11-16T01:55:54.112Z,98401.81
2023-11-16T02:00:58.145Z,98411.44
2023-11-16T02:06:05.313Z,98407.78
2023-11-16T02:11:07.831Z,98347.09
2023-11-16T02:16:10.377Z,98320.91
2023-11-16T02:21:13.853Z,98366.97
2023-11-16T02:26:16.392Z,98300.91
2023-11-16T02:31:20.205Z,98383.41
2023-11-16T02:36:22.675Z,98354.66
2023-11-16T02:41:26.694Z,98362.47
2023-11-16T02:46:29.178Z,98417.19
2023-11-16T02:51:32.979Z,98357.91
2023-11-16T02:56:35.698Z,98393.56
2023-11-16T03:01:39.517Z,98417.03
2023-11-16T03:06:43.398Z,98372.44
2023-11-16T03:11:47.688Z,98358.72
2023-11-16T03:16:55.623Z,98436.00
2023-11-16T03:21:58.326Z,98421.13
2023-11-16T03:27:01.435Z,98415.88
2023-11-16T03:32:03.829Z,98397.56
2023-11-16T03:37:06.856Z,98393.25
2023-11-16T03:42:10.176Z,98394.97
2023-11-16T03:47:12.649Z,98412.34
2023-11-16T03:52:15.058Z,98441.75
2023-11-16T03:57:17.568Z,98472.03
2023-11-16T04:02:20.015Z,98436.38
2023-11-16T04:07:22.513Z,98479.56
2023-11-16T04:12:24.973Z,98354.53
2023-11-16T04:17:27.969Z,98363.25
2023-11-16T04:22:32.016Z,98411.69
2023-11-16T04:27:34.586Z,98471.69
2023-11-16T04:32:37.182Z,98425.47
2023-11-16T04:37:39.699Z,98485.47
2023-11-16T04:42:46.251Z,98480.97
2023-11-16T04:47:48.928Z,98452.31
2023-11-16T04:52:51.678Z,98497.38
2023-11-16T04:57:54.811Z,98506.16
2023-11-16T05:02:57.309Z,98393.94
2023-11-16T05:07:59.971Z,98474.72
2023-11-16T05:13:02.462Z,98520.72
2023-11-16T05:18:05.741Z,98472.81
2023-11-16T05:23:09.081Z,98524.97
2023-11-16T05:28:13.078Z,98431.81
2023-11-16T05:33:15.773Z,98530.09
2023-11-16T05:38:19.372Z,98499.50
2023-11-16T05:43:22.529Z,98482.97
2023-11-16T05:48:27.176Z,98529.16
2023-11-16T05:53:29.655Z,98495.84
2023-11-16T05:58:33.276Z,98521.03
2023-11-16T06:03:36.747Z,98532.34
2023-11-16T06:08:41.501Z,98497.47
2023-11-16T06:13:43.962Z,98560.03
2023-11-16T06:18:46.372Z,98473.91
2023-11-16T06:23:51.676Z,98413.78
2023-11-16T06:28:54.570Z,98496.38
2023-11-16T06:33:57.055Z,98566.00
2023-11-16T06:38:59.648Z,98563.19
2023-11-16T06:44:02.193Z,98554.53
2023-11-16T06:49:08.618Z,98550.16
2023-11-16T06:54:16.122Z,98569.97
2023-11-16T06:59:21.330Z,98571.66
2023-11-16T07:04:23.972Z,98560.31
2023-11-16T07:09:28.735Z,98538.50
2023-11-16T07:14:40.196Z,98579.16
2023-11-16T07:19:50.591Z,98579.09
2023-11-16T07:24:53.308Z,98601.81
2023-11-16T07:29:55.823Z,98503.44
2023-11-16T07:34:58.462Z,98573.78
2023-11-16T07:40:03.201Z,98585.13
2023-11-16T07:45:13.794Z,98608.50
2023-11-16T07:50:16.392Z,98605.84
2023-11-16T07:55:23.658Z,98617.00
2023-11-16T08:00:33.053Z,98632.59
2023-11-16T08:05:37.206Z,98609.88
2023-11-16T08:10:40.322Z,98626.56
2023-11-16T08:15:43.690Z,98643.00
2023-11-16T08:20:47.061Z,98636.03
2023-11-16T08:25:51.994Z,98604.41
2023-11-16T08:30:54.674Z,98616.56
2023-11-16T08:35:58.900Z,98607.88
2023-11-16T08:41:01.491Z,98584.28
2023-11-16T08:46:07.722Z,98639.09
2023-11-16T08:51:12.557Z,98653.84
2023-11-16T08:56:23.622Z,98646.81
2023-11-16T09:01:29.604Z,98593.72
2023-11-16T09:06:33.348Z,98644.16
2023-11-16T09:11:37.410Z,98658.97
2023-11-16T09:16:41.091Z,98625.78
2023-11-16T09:21:46.680Z,98664.03
2023-11-16T09:26:49.875Z,98636.00
2023-11-16T09:31:52.421Z,98632.50
2023-11-16T09:36:54.972Z,98567.31
2023-11-16T09:41:59.191Z,98651.75
2023-11-16T09:47:05.534Z,98639.41
2023-11-16T09:52:07.971Z,98589.66
2023-11-16T09:57:16.525Z,98668.03
2023-11-16T10:02:24.777Z,98615.72
2023-11-16T10:07:33.974Z,98673.13
2023-11-16T10:12:36.448Z,98607.09
2023-11-16T10:17:39.025Z,98620.81
2023-11-16T10:22:43.301Z,98612.81
2023-11-16T10:27:46.155Z,98670.31
2023-11-16T10:32:48.815Z,98657.94
2023-11-16T10:37:54.720Z,98683.38
2023-11-16T10:42:58.127Z,98664.81
2023-11-16T10:48:01.735Z,98707.63
2023-11-16T10:53:08.213Z,98716.28
2023-11-16T10:58:11.289Z,98677.00
2023-11-16T11:03:14.047Z,98591.63
2023-11-16T11:08:20.776Z,98682.16
2023-11-16T11:13:32.483Z,98690.97
2023-11-16T11:18:47.080Z,98719.69
2023-11-16T11:24:07.214Z,98733.47
2023-11-16T11:29:10.141Z,98715.00
2023-11-16T11:34:13.059Z,98700.94
2023-11-16T11:39:18.556Z,98692.28
2023-11-16T11:44:21.035Z,98722.69
2023-11-16T11:49:23.597Z,98742.72
2023-11-16T11:54:41.785Z,98747.78
2023-11-16T11:59:47.276Z,98739.84
2023-11-16T12:04:56.062Z,98706.59
2023-11-16T12:09:59.872Z,98716.22
2023-11-16T12:15:06.780Z,98541.28
2023-11-16T12:20:12.494Z,98732.88
2023-11-16T12:25:17.582Z,98740.59
2023-11-16T12:30:22.201Z,98610.75
2023-11-16T12:35:29.973Z,98704.69
2023-11-16T12:40:41.726Z,98753.38
2023-11-16T12:45:46.255Z,98744.59
2023-11-16T12:50:50.762Z,98749.66
2023-11-16T12:55:54.265Z,98739.38
2023-11-16T13:00:59.020Z,98755.84
2023-11-16T13:06:08.354Z,98735.63
2023-11-16T13:11:14.113Z,98714.81
2023-11-16T13:16:18.814Z,98767.78
2023-11-16T13:21:24.913Z,98797.41
2023-11-16T13:26:31.247Z,98762.47
2023-11-16T13:31:42.147Z,98252.16
2023-11-16T13:37:02.887Z,98241.72
2023-11-16T13:42:15.425Z,98484.69
2023-11-16T13:47:26.817Z,98392.53
2023-11-16T13:52:57.321Z,98712.28
2023-11-16T13:58:01.622Z,98788.91
2023-11-16T14:03:09.948Z,98776.88
2023-11-16T14:08:13.872Z,98789.81
2023-11-16T14:13:24.163Z,98819.50
2023-11-16T14:18:28.762Z,98760.88
2023-11-16T14:23:45.249Z,98794.91
2023-11-16T14:28:49.084Z,98802.59
2023-11-16T14:33:53.697Z,98836.44
2023-11-16T14:38:56.529Z,98845.34
2023-11-16T14:44:02.797Z,98841.84
2023-11-16T14:49:06.935Z,98798.19
2023-11-16T14:54:12.867Z,98840.94
2023-11-16T14:59:17.193Z,98797.13
2023-11-16T15:04:24.383Z,98801.28
2023-11-16T15:09:27.570Z,98815.34
2023-11-16T15:14:30.848Z,98824.88
2023-11-16T15:19:36.525Z,98854.34
2023-11-16T15:24:45.155Z,98798.38
2023-11-16T15:35:40.028Z,98603.78
2023-11-16T15:40:48.705Z,98848.56
2023-11-16T15:45:57.192Z,98893.13
2023-11-16T15:51:06.049Z,98885.00
2023-11-16T15:56:14.583Z,98848.34
2023-11-16T16:01:24.521Z,98878.88
2023-11-16T16:06:29.195Z,98834.28
2023-11-16T16:11:34.044Z,98898.69
2023-11-16T16:16:39.139Z,98896.19
2023-11-16T16:21:54.503Z,98917.94
2023-11-16T16:27:09.156Z,98923.03
2023-11-16T16:32:14.534Z,98912.47
2023-11-16T16:37:18.853Z,98932.41
2023-11-16T16:42:27.912Z,98915.84
2023-11-16T16:47:32.286Z,98850.47
2023-11-16T16:52:37.224Z,98899.09
2023-11-16T16:57:42.177Z,98840.47
2023-11-16T17:02:45.787Z,98845.88
2023-11-16T17:07:50.002Z,98926.88
2023-11-16T17:12:57.031Z,98921.81
2023-11-16T17:18:19.911Z,98669.94
2023-11-16T17:23:33.504Z,98603.59
2023-11-16T17:28:58.384Z,98597.72
2023-11-16T17:34:29.682Z,98500.19
2023-11-16T17:39:45.234Z,98809.75
2023-11-16T17:45:16.168Z,98506.09
2023-11-16T17:50:47.353Z,98690.31
2023-11-16T17:56:35.483Z,98491.97
2023-11-16T18:01:55.682Z,98768.69
2023-11-16T18:07:20.490Z,98983.47
2023-11-16T18:12:24.759Z,98975.16
2023-11-16T18:17:36.499Z,98944.38
2023-11-16T18:22:47.734Z,98961.44
2023-11-16T18:27:53.368Z,99000.31
2023-11-16T18:32:59.968Z,98996.97
2023-11-16T18:38:14.065Z,98989.72
2023-11-16T18:43:28.539Z,99021.84
2023-11-16T18:48:41.802Z,99011.09
2023-11-16T18:53:46.563Z,98979.22
2023-11-16T18:58:50.768Z,99027.22
2023-11-16T19:03:56.915Z,99015.59
2023-11-16T19:09:03.066Z,99065.03
2023-11-16T19:19:39.966Z,99060.53
2023-11-16T19:24:43.085Z,99067.34
2023-11-16T19:29:49.092Z,99051.56
2023-11-16T19:34:54.450Z,99040.78
2023-11-16T19:40:01.376Z,99023.22
2023-11-16T19:45:04.961Z,99063.84
2023-11-16T19:50:08.962Z,99028.84
2023-11-16T19:55:15.298Z,99039.91
2023-11-16T20:00:24.449Z,99030.25
2023-11-16T20:05:27.032Z,99047.09
2023-11-16T20:10:32.343Z,99086.31
2023-11-16T20:15:37.954Z,98965.59
2023-11-16T20:20:48.109Z,98995.69
2023-11-16T20:26:00.381Z,99078.91
2023-11-16T20:31:05.296Z,99098.69
2023-11-16T20:36:12.048Z,99050.25
2023-11-16T20:41:14.525Z,99093.00
2023-11-16T20:46:21.281Z,99088.56
2023-11-16T20:51:24.448Z,99149.59
2023-11-16T20:56:26.916Z,99113.72
2023-11-16T21:01:29.378Z,99130.84
2023-11-16T21:06:34.949Z,99146.84
2023-11-16T21:11:39.177Z,99159.75
2023-11-16T21:16:41.999Z,99128.81
2023-11-16T21:21:44.824Z,99126.16
2023-11-16T21:26:47.322Z,99143.41
2023-11-16T21:31:50.567Z,99138.22
2023-11-16T21:36:53.281Z,99161.66
2023-11-16T21:41:56.674Z,99147.59
2023-11-16T21:46:59.259Z,99173.91
2023-11-16T21:52:02.012Z,99135.97
2023-11-16T21:57:04.745Z,99146.38
2023-11-16T22:02:08.324Z,99180.16
2023-11-16T22:07:10.730Z,99194.03
2023-11-16T22:12:13.210Z,99186.94
2023-11-16T22:17:15.727Z,99156.94
2023-11-16T22:22:19.937Z,99180.56
2023-11-16T22:27:25.121Z,99188.19
2023-11-16T22:32:28.307Z,99173.97
2023-11-16T22:37:30.796Z,99183.59
2023-11-16T22:42:34.615Z,99119.56
2023-11-16T22:47:38.383Z,99214.88
2023-11-16T22:52:41.256Z,99200.72
2023-11-16T22:57:43.898Z,99236.66
2023-11-16T23:02:46.724Z,99189.31
2023-11-16T23:07:53.305Z,99148.81
2023-11-16T23:12:55.766Z,99222.28
2023-11-16T23:17:58.650Z,99248.56
2023-11-16T23:23:01.301Z,99238.31
2023-11-16T23:28:04.023Z,99267.97
2023-11-16T23:33:06.710Z,99243.94
2023-11-16T23:38:09.790Z,99263.25
2023-11-16T23:43:12.472Z,99282.34
2023-11-16T23:48:15.076Z,99278.91
2023-11-16T23:53:19.463Z,99281.47
2023-11-16T23:58:22.350Z,99254.06
